createdAt,value
2019-06-01T00:02:11.722Z,16.76
2019-06-01T00:04:40.965Z,16.76
2019-06-01T00:07:09.924Z,16.64
2019-06-01T00:09:39.049Z,16.55
2019-06-01T00:12:08.150Z,16.38
2019-06-01T00:14:37.073Z,16.48
2019-06-01T00:17:06.095Z,16.49
2019-06-01T00:19:34.966Z,16.31
2019-06-01T00:22:03.902Z,16.27
2019-06-01T00:24:32.773Z,16.27
2019-06-01T00:27:01.551Z,16.31
2019-06-01T00:29:30.469Z,16.31
2019-06-01T00:31:59.454Z,16.22
2019-06-01T00:34:28.378Z,16.42
2019-06-01T00:36:57.306Z,16.18
2019-06-01T00:39:26.181Z,16.08
2019-06-01T00:41:55.233Z,16.04
2019-06-01T00:44:24.234Z,15.89
2019-06-01T00:46:53.193Z,15.86
2019-06-01T00:49:22.196Z,15.86
2019-06-01T00:51:52.098Z,15.78
2019-06-01T00:54:21.833Z,15.79
2019-06-01T00:56:51.679Z,15.74
2019-06-01T00:59:20.933Z,15.74
2019-06-01T01:01:50.090Z,15.71
2019-06-01T01:04:19.169Z,15.74
2019-06-01T01:06:49.235Z,15.89
2019-06-01T01:09:18.640Z,15.75
2019-06-01T01:11:47.464Z,15.79
2019-06-01T01:14:16.509Z,15.76
2019-06-01T01:16:45.530Z,15.60
2019-06-01T01:19:14.664Z,15.57
2019-06-01T01:21:43.707Z,15.36
2019-06-01T01:24:12.594Z,15.30
2019-06-01T01:26:41.514Z,15.35
2019-06-01T01:29:10.520Z,15.45
2019-06-01T01:31:39.541Z,15.38
2019-06-01T01:34:13.768Z,15.26
2019-06-01T01:36:43.789Z,15.20
2019-06-01T01:39:13.603Z,15.01
2019-06-01T01:41:43.409Z,14.91
2019-06-01T01:44:13.397Z,14.87
2019-06-01T01:46:42.708Z,14.86
2019-06-01T01:49:11.623Z,14.99
2019-06-01T01:51:40.640Z,14.90
2019-06-01T01:54:09.570Z,14.88
2019-06-01T01:56:38.452Z,15.06
2019-06-01T01:59:07.590Z,14.98
2019-06-01T02:01:36.555Z,14.97
2019-06-01T02:04:05.603Z,15.03
2019-06-01T02:06:34.483Z,14.92
2019-06-01T02:09:03.669Z,14.81
2019-06-01T02:11:32.686Z,14.82
2019-06-01T02:14:02.152Z,14.80
2019-06-01T02:16:31.180Z,14.89
2019-06-01T02:19:00.551Z,14.90
2019-06-01T02:21:29.712Z,14.83
2019-06-01T02:23:59.049Z,14.75
2019-06-01T02:26:28.146Z,14.78
2019-06-01T02:28:57.324Z,14.57
2019-06-01T02:31:40.811Z,14.43
2019-06-01T02:33:58.561Z,14.36
2019-06-01T02:36:27.614Z,14.25
2019-06-01T02:38:58.583Z,14.32
2019-06-01T02:41:27.841Z,14.27
2019-06-01T02:43:57.375Z,14.24
2019-06-01T02:46:26.717Z,14.24
2019-06-01T02:48:57.278Z,14.21
2019-06-01T02:51:26.307Z,14.19
2019-06-01T02:53:55.599Z,14.15
2019-06-01T02:56:24.526Z,14.13
2019-06-01T02:58:53.699Z,14.12
2019-06-01T03:01:35.421Z,14.09
2019-06-01T03:04:08.479Z,14.12
2019-06-01T03:06:39.730Z,14.14
2019-06-01T03:09:09.940Z,14.21
2019-06-01T03:11:40.873Z,14.12
2019-06-01T03:14:11.636Z,13.96
2019-06-01T03:16:41.788Z,13.82
2019-06-01T03:19:12.151Z,13.78
2019-06-01T03:21:44.363Z,13.79
2019-06-01T03:24:13.598Z,13.80
2019-06-01T03:26:45.203Z,13.73
2019-06-01T03:29:21.657Z,13.72
2019-06-01T03:31:50.522Z,13.70
2019-06-01T03:34:19.588Z,13.75
2019-06-01T03:36:48.820Z,13.88
2019-06-01T03:39:18.159Z,14.07
2019-06-01T03:41:47.048Z,14.14
2019-06-01T03:44:16.088Z,14.00
2019-06-01T03:46:45.158Z,14.09
2019-06-01T03:49:14.112Z,14.06
2019-06-01T03:51:43.155Z,13.98
2019-06-01T03:54:13.255Z,13.84
2019-06-01T03:56:42.276Z,13.77
2019-06-01T03:59:11.327Z,13.73
2019-06-01T04:01:40.310Z,13.69
2019-06-01T04:04:09.386Z,13.73
2019-06-01T04:06:38.246Z,13.75
2019-06-01T04:09:08.048Z,13.77
2019-06-01T04:11:37.088Z,13.83
2019-06-01T04:14:07.731Z,13.83
2019-06-01T04:16:36.812Z,13.87
2019-06-01T04:19:06.070Z,14.07
2019-06-01T04:21:35.186Z,14.16
2019-06-01T04:24:04.219Z,14.20
2019-06-01T04:26:33.135Z,14.20
2019-06-01T04:29:02.360Z,14.26
2019-06-01T04:31:31.411Z,14.38
2019-06-01T04:34:00.372Z,14.49
2019-06-01T04:36:29.425Z,14.58
2019-06-01T04:38:58.410Z,14.71
2019-06-01T04:41:27.468Z,15.05
2019-06-01T04:43:56.485Z,15.35
2019-06-01T04:46:25.393Z,15.45
2019-06-01T04:48:54.301Z,15.44
2019-06-01T04:51:23.210Z,15.48
2019-06-01T04:53:52.174Z,15.38
2019-06-01T04:56:21.166Z,15.45
2019-06-01T04:58:50.058Z,15.49
2019-06-01T05:01:18.946Z,15.55
2019-06-01T05:03:47.929Z,15.70
2019-06-01T05:06:16.944Z,15.75
2019-06-01T05:08:45.782Z,15.81
2019-06-01T05:11:15.683Z,15.65
2019-06-01T05:13:44.910Z,16.02
2019-06-01T05:16:14.858Z,16.00
2019-06-01T05:18:44.441Z,16.09
2019-06-01T05:21:15.024Z,16.15
2019-06-01T05:23:44.071Z,16.33
2019-06-01T05:26:17.168Z,16.36
2019-06-01T05:28:46.157Z,16.36
2019-06-01T05:31:24.522Z,16.37
2019-06-01T05:33:45.926Z,16.42
2019-06-01T05:36:16.251Z,16.70
2019-06-01T05:38:45.194Z,16.81
2019-06-01T05:41:14.982Z,16.84
2019-06-01T05:43:44.076Z,16.95
2019-06-01T05:46:14.033Z,17.09
2019-06-01T05:48:43.218Z,17.29
2019-06-01T05:51:14.906Z,17.51
2019-06-01T05:53:42.966Z,17.63
2019-06-01T05:56:12.701Z,17.68
2019-06-01T05:58:41.555Z,17.77
2019-06-01T06:01:10.546Z,17.93
2019-06-01T06:03:40.822Z,18.04
2019-06-01T06:06:09.881Z,18.22
2019-06-01T06:08:38.782Z,18.50
2019-06-01T06:11:07.761Z,18.74
2019-06-01T06:13:36.652Z,19.10
2019-06-01T06:16:05.718Z,19.81
2019-06-01T06:18:34.690Z,20.88
2019-06-01T06:21:03.651Z,22.30
2019-06-01T06:23:32.461Z,22.96
2019-06-01T06:26:01.345Z,23.43
2019-06-01T06:28:32.270Z,23.95
2019-06-01T06:31:00.882Z,24.98
2019-06-01T06:33:29.887Z,25.00
2019-06-01T06:35:59.048Z,25.11
2019-06-01T06:38:28.137Z,24.83
2019-06-01T06:40:57.901Z,25.05
2019-06-01T06:43:33.125Z,25.94
2019-06-01T06:46:00.126Z,25.74
2019-06-01T06:48:29.043Z,25.72
2019-06-01T06:50:57.958Z,26.52
2019-06-01T06:53:34.446Z,27.63
2019-06-01T06:55:57.780Z,27.42
2019-06-01T06:58:26.881Z,27.47
2019-06-01T07:00:55.974Z,28.09
2019-06-01T07:03:25.212Z,27.82
2019-06-01T07:05:54.197Z,27.89
2019-06-01T07:08:23.914Z,27.26
2019-06-01T07:10:52.893Z,27.26
2019-06-01T07:13:21.776Z,27.53
2019-06-01T07:15:50.690Z,27.32
2019-06-01T07:18:19.718Z,26.81
2019-06-01T07:20:48.640Z,26.44
2019-06-01T07:23:17.539Z,26.66
2019-06-01T07:25:49.302Z,26.79
2019-06-01T07:28:18.251Z,27.32
2019-06-01T07:30:50.423Z,28.24
2019-06-01T07:33:17.687Z,28.38
2019-06-01T07:35:47.074Z,28.26
2019-06-01T07:38:15.891Z,28.50
2019-06-01T07:40:44.795Z,29.25
2019-06-01T07:43:13.704Z,28.79
2019-06-01T07:45:42.626Z,29.23
2019-06-01T07:48:11.438Z,29.94
2019-06-01T07:50:40.497Z,28.99
2019-06-01T07:53:15.426Z,29.26
2019-06-01T07:55:48.871Z,29.38
2019-06-01T07:58:20.866Z,29.87
2019-06-01T08:00:51.489Z,29.87
2019-06-01T08:03:34.782Z,29.39
2019-06-01T08:06:06.043Z,29.16
2019-06-01T08:08:38.033Z,28.61
2019-06-01T08:11:11.300Z,27.93
2019-06-01T08:13:41.768Z,27.72
2019-06-01T08:16:13.501Z,28.42
2019-06-01T08:18:45.496Z,28.77
2019-06-01T08:21:18.888Z,29.45
2019-06-01T08:23:49.032Z,29.70
2019-06-01T08:26:20.225Z,29.16
2019-06-01T08:28:50.621Z,29.64
2019-06-01T08:31:20.746Z,29.74
2019-06-01T08:33:49.732Z,29.48
2019-06-01T08:36:18.647Z,28.46
2019-06-01T08:38:51.377Z,27.49
2019-06-01T08:41:23.369Z,27.06
2019-06-01T08:43:53.246Z,26.31
2019-06-01T08:46:23.661Z,25.69
2019-06-01T08:48:52.886Z,25.79
2019-06-01T08:51:21.848Z,25.80
2019-06-01T08:53:50.729Z,25.84
2019-06-01T08:56:21.823Z,25.74
2019-06-01T08:58:50.244Z,25.88
2019-06-01T09:01:19.231Z,25.68
2019-06-01T09:03:48.138Z,25.43
2019-06-01T09:06:17.057Z,25.55
2019-06-01T09:08:45.951Z,25.59
2019-06-01T09:11:15.008Z,25.70
2019-06-01T09:13:43.771Z,25.86
2019-06-01T09:16:12.664Z,25.98
2019-06-01T09:18:41.628Z,25.98
2019-06-01T09:21:10.555Z,25.81
2019-06-01T09:23:40.275Z,26.03
2019-06-01T09:26:09.171Z,26.00
2019-06-01T09:28:38.119Z,26.05
2019-06-01T09:31:07.277Z,26.21
2019-06-01T09:33:36.874Z,26.22
2019-06-01T09:36:05.963Z,26.22
2019-06-01T09:38:35.832Z,25.91
2019-06-01T09:41:05.066Z,26.22
2019-06-01T09:43:35.007Z,26.04
2019-06-01T09:46:03.914Z,25.71
2019-06-01T09:48:33.572Z,25.71
2019-06-01T09:51:02.747Z,25.79
2019-06-01T09:53:32.539Z,25.91
2019-06-01T09:56:02.350Z,25.93
2019-06-01T09:58:32.201Z,25.80
2019-06-01T10:01:01.281Z,25.32
2019-06-01T10:03:30.308Z,25.34
2019-06-01T10:06:02.154Z,25.29
2019-06-01T10:08:30.001Z,25.53
2019-06-01T10:10:58.889Z,25.27
2019-06-01T10:13:27.900Z,25.17
2019-06-01T10:15:56.803Z,24.91
2019-06-01T10:18:27.043Z,25.04
2019-06-01T10:20:56.279Z,25.25
2019-06-01T10:23:25.047Z,25.59
2019-06-01T10:25:53.843Z,25.79
2019-06-01T10:28:23.189Z,25.90
2019-06-01T10:30:52.129Z,26.11
2019-06-01T10:33:20.891Z,26.41
2019-06-01T10:35:49.798Z,26.43
2019-06-01T10:38:18.791Z,26.48
2019-06-01T10:40:47.632Z,26.54
2019-06-01T10:43:16.611Z,26.32
2019-06-01T10:45:45.650Z,26.06
2019-06-01T10:48:14.515Z,26.06
2019-06-01T10:50:43.478Z,26.09
2019-06-01T10:53:12.385Z,26.29
2019-06-01T10:55:42.465Z,26.25
2019-06-01T10:58:11.474Z,26.24
2019-06-01T11:00:46.730Z,26.36
2019-06-01T11:03:11.089Z,25.92
2019-06-01T11:05:40.848Z,26.29
2019-06-01T11:08:09.706Z,26.36
2019-06-01T11:10:38.958Z,26.09
2019-06-01T11:13:07.722Z,26.50
2019-06-01T11:15:37.007Z,26.71
2019-06-01T11:18:06.041Z,26.84
2019-06-01T11:20:35.240Z,26.79
2019-06-01T11:23:04.134Z,26.92
2019-06-01T11:25:33.444Z,26.74
2019-06-01T11:28:02.565Z,26.65
2019-06-01T11:30:31.572Z,26.65
2019-06-01T11:33:00.608Z,26.60
2019-06-01T11:35:31.468Z,26.21
2019-06-01T11:38:00.422Z,26.56
2019-06-01T11:40:29.310Z,26.77
2019-06-01T11:42:58.297Z,26.81
2019-06-01T11:45:27.123Z,27.09
2019-06-01T11:47:56.008Z,27.12
2019-06-01T11:50:25.007Z,26.73
2019-06-01T11:52:53.981Z,26.56
2019-06-01T11:55:22.997Z,26.91
2019-06-01T11:57:51.944Z,27.00
2019-06-01T12:00:21.355Z,26.91
2019-06-01T12:02:50.358Z,26.90
2019-06-01T12:05:19.319Z,26.56
2019-06-01T12:07:48.199Z,26.97
2019-06-01T12:10:17.494Z,27.08
2019-06-01T12:12:46.612Z,27.22
2019-06-01T12:15:15.917Z,27.46
2019-06-01T12:17:45.025Z,27.79
2019-06-01T12:20:14.495Z,27.61
2019-06-01T12:22:43.510Z,27.59
2019-06-01T12:25:12.696Z,27.71
2019-06-01T12:27:41.735Z,27.60
2019-06-01T12:30:11.308Z,27.69
2019-06-01T12:32:40.300Z,27.98
2019-06-01T12:35:09.496Z,28.23
2019-06-01T12:37:56.063Z,28.26
2019-06-01T12:40:09.942Z,27.77
2019-06-01T12:42:39.738Z,27.80
2019-06-01T12:45:09.935Z,27.81
2019-06-01T12:47:39.917Z,27.98
2019-06-01T12:50:09.607Z,28.03
2019-06-01T12:52:38.601Z,28.15
2019-06-01T12:55:07.632Z,28.29
2019-06-01T12:57:37.269Z,28.44
2019-06-01T13:00:08.661Z,27.99
2019-06-01T13:02:37.971Z,27.75
2019-06-01T13:05:07.794Z,28.03
2019-06-01T13:07:50.893Z,28.00
2019-06-01T13:10:07.343Z,28.32
2019-06-01T13:12:36.217Z,28.50
2019-06-01T13:15:05.978Z,28.49
2019-06-01T13:17:34.886Z,28.31
2019-06-01T13:20:04.500Z,28.45
2019-06-01T13:22:33.274Z,28.42
2019-06-01T13:25:02.344Z,28.42
2019-06-01T13:27:31.251Z,28.57
2019-06-01T13:30:00.082Z,28.90
2019-06-01T13:32:29.054Z,29.39
2019-06-01T13:34:57.968Z,30.37
2019-06-01T13:37:26.990Z,29.46
2019-06-01T13:39:58.227Z,29.53
2019-06-01T13:42:27.077Z,29.83
2019-06-01T13:44:56.048Z,30.75
2019-06-01T13:47:24.865Z,31.01
2019-06-01T13:49:54.224Z,31.12
2019-06-01T13:52:23.094Z,31.91
2019-06-01T13:54:52.546Z,32.71
2019-06-01T13:57:21.549Z,33.00
2019-06-01T13:59:50.946Z,33.40
2019-06-01T14:02:20.076Z,33.76
2019-06-01T14:04:49.914Z,32.75
2019-06-01T14:07:18.838Z,32.79
2019-06-01T14:09:49.032Z,32.77
2019-06-01T14:12:17.934Z,33.18
2019-06-01T14:14:47.469Z,33.35
2019-06-01T14:17:16.399Z,34.30
2019-06-01T14:19:45.677Z,33.51
2019-06-01T14:22:14.818Z,33.97
2019-06-01T14:24:45.891Z,35.06
2019-06-01T14:27:14.602Z,35.58
2019-06-01T14:29:43.523Z,34.79
2019-06-01T14:32:12.511Z,33.59
2019-06-01T14:34:41.407Z,33.61
2019-06-01T14:37:11.297Z,33.41
2019-06-01T14:39:40.157Z,32.79
2019-06-01T14:42:09.193Z,33.59
2019-06-01T14:44:38.035Z,33.58
2019-06-01T14:47:07.069Z,33.35
2019-06-01T14:49:36.158Z,32.63
2019-06-01T14:52:05.324Z,33.59
2019-06-01T14:54:34.197Z,33.95
2019-06-01T14:57:03.244Z,32.72
2019-06-01T14:59:32.145Z,33.04
2019-06-01T15:02:01.125Z,33.25
2019-06-01T15:04:29.970Z,33.96
2019-06-01T15:06:59.010Z,32.65
2019-06-01T15:09:27.900Z,32.57
2019-06-01T15:11:56.798Z,32.75
2019-06-01T15:14:25.613Z,32.21
2019-06-01T15:16:55.969Z,32.35
2019-06-01T15:19:25.171Z,33.04
2019-06-01T15:21:54.169Z,33.43
2019-06-01T15:24:23.162Z,33.49
2019-06-01T15:26:52.454Z,34.88
2019-06-01T15:29:21.507Z,34.20
2019-06-01T15:31:51.115Z,33.50
2019-06-01T15:34:20.063Z,33.68
2019-06-01T15:36:49.013Z,33.97
2019-06-01T15:39:24.716Z,34.24
2019-06-01T15:41:48.468Z,33.80
2019-06-01T15:44:17.441Z,33.93
2019-06-01T15:46:47.295Z,33.14
2019-06-01T15:49:16.476Z,33.58
2019-06-01T15:51:45.485Z,33.59
2019-06-01T15:54:14.401Z,33.45
2019-06-01T15:56:43.357Z,33.28
2019-06-01T15:59:12.272Z,33.11
2019-06-01T16:01:41.164Z,33.85
2019-06-01T16:04:10.069Z,34.74
2019-06-01T16:06:38.985Z,33.46
2019-06-01T16:09:08.251Z,33.08
2019-06-01T16:11:37.194Z,33.08
2019-06-01T16:14:06.229Z,33.66
2019-06-01T16:16:35.334Z,33.61
2019-06-01T16:19:07.780Z,34.20
2019-06-01T16:21:35.386Z,34.15
2019-06-01T16:24:04.578Z,34.23
2019-06-01T16:26:33.573Z,34.30
2019-06-01T16:29:03.485Z,33.73
2019-06-01T16:31:33.301Z,34.16
2019-06-01T16:34:02.922Z,34.31
2019-06-01T16:36:31.894Z,33.78
2019-06-01T16:39:04.730Z,33.87
2019-06-01T16:41:31.617Z,33.51
2019-06-01T16:44:01.729Z,33.07
2019-06-01T16:46:30.836Z,33.32
2019-06-01T16:48:59.743Z,34.19
2019-06-01T16:51:49.194Z,34.91
2019-06-01T16:54:18.177Z,35.44
2019-06-01T16:56:48.316Z,35.97
2019-06-01T16:59:17.505Z,36.22
2019-06-01T17:01:46.914Z,35.44
2019-06-01T17:04:16.035Z,35.64
2019-06-01T17:06:46.146Z,34.48
2019-06-01T17:09:15.139Z,33.62
2019-06-01T17:11:44.217Z,33.75
2019-06-01T17:14:13.273Z,33.97
2019-06-01T17:16:42.197Z,34.83
2019-06-01T17:19:11.159Z,35.07
2019-06-01T17:21:40.174Z,35.90
2019-06-01T17:24:09.107Z,36.93
2019-06-01T17:26:38.005Z,37.40
2019-06-01T17:29:08.225Z,37.69
2019-06-01T17:31:51.392Z,36.82
2019-06-01T17:34:08.729Z,36.40
2019-06-01T17:36:37.868Z,36.41
2019-06-01T17:39:08.085Z,35.19
2019-06-01T17:41:37.307Z,35.80
2019-06-01T17:44:06.800Z,36.12
2019-06-01T17:46:52.309Z,36.25
2019-06-01T17:49:06.575Z,36.63
2019-06-01T17:51:35.585Z,36.41
2019-06-01T17:54:05.406Z,35.95
2019-06-01T17:56:35.216Z,35.97
2019-06-01T17:59:05.345Z,35.53
2019-06-01T18:01:34.521Z,34.13
2019-06-01T18:04:03.816Z,33.57
2019-06-01T18:06:32.703Z,33.27
2019-06-01T18:09:02.006Z,32.86
2019-06-01T18:11:30.987Z,31.87
2019-06-01T18:13:59.978Z,32.25
2019-06-01T18:16:29.097Z,32.13
2019-06-01T18:18:57.987Z,32.05
2019-06-01T18:21:27.471Z,32.16
2019-06-01T18:23:56.352Z,32.53
2019-06-01T18:26:25.290Z,33.56
2019-06-01T18:28:54.387Z,33.48
2019-06-01T18:31:23.380Z,33.91
2019-06-01T18:33:53.761Z,33.84
2019-06-01T18:36:22.861Z,34.01
2019-06-01T18:38:51.855Z,33.92
2019-06-01T18:41:20.843Z,33.40
2019-06-01T18:43:49.946Z,32.47
2019-06-01T18:46:19.074Z,31.84
2019-06-01T18:48:47.975Z,31.47
2019-06-01T18:51:16.848Z,31.47
2019-06-01T18:53:45.815Z,31.23
2019-06-01T18:56:14.803Z,30.77
2019-06-01T18:58:43.827Z,30.64
2019-06-01T19:01:14.754Z,30.27
2019-06-01T19:03:43.865Z,30.29
2019-06-01T19:06:13.851Z,30.10
2019-06-01T19:08:42.937Z,29.77
2019-06-01T19:11:27.380Z,29.41
2019-06-01T19:13:42.571Z,29.14
2019-06-01T19:16:12.202Z,28.73
2019-06-01T19:18:41.283Z,28.80
2019-06-01T19:21:10.656Z,28.40
2019-06-01T19:23:39.566Z,28.16
2019-06-01T19:26:11.633Z,27.80
2019-06-01T19:28:39.357Z,27.55
2019-06-01T19:31:08.777Z,27.15
2019-06-01T19:38:49.114Z,26.25
2019-06-01T19:41:18.178Z,25.96
2019-06-01T19:43:46.983Z,25.70
2019-06-01T19:46:16.000Z,25.48
2019-06-01T19:48:44.955Z,25.36
2019-06-01T19:51:14.552Z,25.20
2019-06-01T19:53:43.580Z,25.03
2019-06-01T19:56:12.919Z,24.98
2019-06-01T19:58:41.866Z,24.78
2019-06-01T20:01:12.174Z,24.62
2019-06-01T20:03:41.187Z,24.54
2019-06-01T20:06:10.680Z,24.40
2019-06-01T20:08:40.618Z,24.30
2019-06-01T20:11:09.555Z,24.29
2019-06-01T20:13:38.430Z,24.15
2019-06-01T20:16:07.278Z,23.97
2019-06-01T20:18:36.175Z,23.78
2019-06-01T20:21:05.856Z,23.69
2019-06-01T20:23:34.782Z,23.60
2019-06-01T20:26:03.948Z,23.61
2019-06-01T20:28:32.836Z,23.61
2019-06-01T20:31:01.854Z,23.43
2019-06-01T20:33:30.872Z,23.31
2019-06-01T20:35:59.836Z,23.15
2019-06-01T20:38:28.788Z,23.14
2019-06-01T20:40:57.655Z,22.98
2019-06-01T20:43:26.685Z,22.90
2019-06-01T20:45:56.886Z,22.82
2019-06-01T20:48:26.067Z,22.79
2019-06-01T20:50:55.070Z,22.67
2019-06-01T20:53:24.205Z,22.60
2019-06-01T20:55:53.153Z,22.37
2019-06-01T20:58:23.649Z,22.37
2019-06-01T21:00:52.911Z,22.37
2019-06-01T21:03:21.998Z,22.47
2019-06-01T21:05:50.896Z,22.45
2019-06-01T21:08:20.300Z,22.37
2019-06-01T21:10:49.344Z,22.30
2019-06-01T21:13:18.404Z,22.17
2019-06-01T21:15:47.326Z,22.02
2019-06-01T21:18:16.303Z,21.92
2019-06-01T21:20:45.264Z,21.90
2019-06-01T21:23:14.470Z,21.77
2019-06-01T21:25:43.482Z,21.68
2019-06-01T21:28:14.884Z,21.77
2019-06-01T21:30:43.099Z,21.56
2019-06-01T21:33:12.052Z,21.52
2019-06-01T21:35:40.914Z,21.34
2019-06-01T21:38:10.082Z,21.20
2019-06-01T21:40:39.048Z,21.13
2019-06-01T21:43:23.881Z,21.02
2019-06-01T21:45:38.605Z,20.91
2019-06-01T21:48:07.543Z,20.79
2019-06-01T21:50:36.567Z,20.67
2019-06-01T21:53:05.756Z,20.67
2019-06-01T21:55:34.748Z,20.59
2019-06-01T21:58:03.852Z,20.51
2019-06-01T22:00:37.688Z,20.51
2019-06-01T22:03:07.748Z,20.40
2019-06-01T22:05:36.899Z,20.31
2019-06-01T22:08:05.839Z,20.23
2019-06-01T22:10:34.991Z,20.23
2019-06-01T22:13:17.567Z,20.15
2019-06-01T22:15:34.790Z,20.02
2019-06-01T22:18:03.729Z,19.96
2019-06-01T22:20:32.702Z,19.82
2019-06-01T22:23:01.759Z,19.76
2019-06-01T22:25:30.716Z,19.67
2019-06-01T22:27:59.538Z,19.76
2019-06-01T22:30:28.736Z,19.62
2019-06-01T22:32:57.630Z,19.51
2019-06-01T22:35:26.774Z,19.42
2019-06-01T22:37:55.747Z,19.34
2019-06-01T22:40:25.030Z,19.26
2019-06-01T22:42:54.045Z,19.15
2019-06-01T22:45:23.037Z,19.09
2019-06-01T22:47:52.000Z,19.06
2019-06-01T22:50:21.004Z,19.01
2019-06-01T22:52:49.759Z,19.03
2019-06-01T22:55:19.968Z,18.97
2019-06-01T22:57:49.158Z,18.96
2019-06-01T23:00:18.325Z,18.91
2019-06-01T23:02:48.947Z,18.72
2019-06-01T23:05:17.920Z,18.72
2019-06-01T23:07:46.936Z,18.67
2019-06-01T23:10:16.134Z,18.57
2019-06-01T23:12:45.025Z,18.57
2019-06-01T23:15:14.363Z,18.46
2019-06-01T23:17:43.264Z,18.47
2019-06-01T23:20:12.286Z,18.43
2019-06-01T23:22:41.203Z,18.35
2019-06-01T23:25:10.012Z,18.40
2019-06-01T23:27:39.002Z,18.31
2019-06-01T23:30:08.089Z,18.26
2019-06-01T23:32:37.137Z,18.23
2019-06-01T23:35:06.770Z,18.25
2019-06-01T23:37:35.673Z,18.13
2019-06-01T23:40:04.839Z,18.00
2019-06-01T23:42:33.831Z,17.94
2019-06-01T23:45:02.820Z,17.91
2019-06-01T23:47:31.845Z,17.81
2019-06-01T23:50:00.783Z,17.74
2019-06-01T23:52:29.672Z,17.73
2019-06-01T23:54:58.550Z,17.72
2019-06-01T23:57:28.009Z,17.74
2019-06-01T23:59:56.996Z,17.67
